sensor_id;sensor_type;location;lat;lon;timestamp;P1;durP1;ratioP1;P2;durP2;ratioP2
64061;SDS011;50308;47.438;-1.528;2023-12-07T00:01:06;5.40;;;4.90;;
64061;SDS011;50308;47.438;-1.528;2023-12-07T00:03:32;5.78;;;5.18;;
64061;SDS011;50308;47.438;-1.528;2023-12-07T00:05:57;5.18;;;4.68;;
64061;SDS011;50308;47.438;-1.528;2023-12-07T00:08:23;4.78;;;4.38;;
64061;SDS011;50308;47.438;-1.528;2023-12-07T00:10:49;4.90;;;4.40;;
64061;SDS011;50308;47.438;-1.528;2023-12-07T00:13:15;4.70;;;4.20;;
64061;SDS011;50308;47.438;-1.528;2023-12-07T00:15:41;4.32;;;3.90;;
64061;SDS011;50308;47.438;-1.528;2023-12-07T00:18:06;5.78;;;4.05;;
64061;SDS011;50308;47.438;-1.528;2023-12-07T00:20:32;4.97;;;3.97;;
64061;SDS011;50308;47.438;-1.528;2023-12-07T00:22:58;4.25;;;3.63;;
64061;SDS011;50308;47.438;-1.528;2023-12-07T00:25:23;4.13;;;3.28;;
64061;SDS011;50308;47.438;-1.528;2023-12-07T00:27:49;3.60;;;3.13;;
64061;SDS011;50308;47.438;-1.528;2023-12-07T00:30:14;3.28;;;2.85;;
64061;SDS011;50308;47.438;-1.528;2023-12-07T00:32:41;2.97;;;2.50;;
64061;SDS011;50308;47.438;-1.528;2023-12-07T00:35:10;3.15;;;2.80;;
64061;SDS011;50308;47.438;-1.528;2023-12-07T00:37:36;2.85;;;2.53;;
64061;SDS011;50308;47.438;-1.528;2023-12-07T00:40:01;2.95;;;2.40;;
64061;SDS011;50308;47.438;-1.528;2023-12-07T00:42:29;2.97;;;2.30;;
64061;SDS011;50308;47.438;-1.528;2023-12-07T00:44:55;2.63;;;2.22;;
64061;SDS011;50308;47.438;-1.528;2023-12-07T00:47:20;3.75;;;2.70;;
64061;SDS011;50308;47.438;-1.528;2023-12-07T00:49:46;2.90;;;2.35;;
64061;SDS011;50308;47.438;-1.528;2023-12-07T00:52:12;2.70;;;2.00;;
64061;SDS011;50308;47.438;-1.528;2023-12-07T00:54:38;2.55;;;2.20;;
64061;SDS011;50308;47.438;-1.528;2023-12-07T00:57:04;2.75;;;1.83;;
64061;SDS011;50308;47.438;-1.528;2023-12-07T00:59:33;2.40;;;2.20;;
64061;SDS011;50308;47.438;-1.528;2023-12-07T01:02:05;3.50;;;2.10;;
64061;SDS011;50308;47.438;-1.528;2023-12-07T01:04:31;2.85;;;2.25;;
64061;SDS011;50308;47.438;-1.528;2023-12-07T01:06:58;2.42;;;2.17;;
64061;SDS011;50308;47.438;-1.528;2023-12-07T01:09:24;2.85;;;2.00;;
64061;SDS011;50308;47.438;-1.528;2023-12-07T01:11:50;2.65;;;2.05;;
64061;SDS011;50308;47.438;-1.528;2023-12-07T01:14:16;2.40;;;1.85;;
64061;SDS011;50308;47.438;-1.528;2023-12-07T01:16:42;2.50;;;2.13;;
64061;SDS011;50308;47.438;-1.528;2023-12-07T01:19:08;2.47;;;2.10;;
64061;SDS011;50308;47.438;-1.528;2023-12-07T01:21:34;2.28;;;1.85;;
64061;SDS011;50308;47.438;-1.528;2023-12-07T01:24:00;2.90;;;1.80;;
64061;SDS011;50308;47.438;-1.528;2023-12-07T01:26:25;3.60;;;2.10;;
64061;SDS011;50308;47.438;-1.528;2023-12-07T01:28:51;3.60;;;2.20;;
64061;SDS011;50308;47.438;-1.528;2023-12-07T01:31:17;1.90;;;1.65;;
64061;SDS011;50308;47.438;-1.528;2023-12-07T01:33:43;2.72;;;2.10;;
64061;SDS011;50308;47.438;-1.528;2023-12-07T01:36:10;2.20;;;1.90;;
64061;SDS011;50308;47.438;-1.528;2023-12-07T01:38:36;3.28;;;2.20;;
64061;SDS011;50308;47.438;-1.528;2023-12-07T01:41:01;3.97;;;2.00;;
64061;SDS011;50308;47.438;-1.528;2023-12-07T01:43:27;2.28;;;2.08;;
64061;SDS011;50308;47.438;-1.528;2023-12-07T01:45:53;3.28;;;2.10;;
64061;SDS011;50308;47.438;-1.528;2023-12-07T01:48:21;1.90;;;1.70;;
64061;SDS011;50308;47.438;-1.528;2023-12-07T01:50:49;2.67;;;2.33;;
64061;SDS011;50308;47.438;-1.528;2023-12-07T01:53:16;3.55;;;2.42;;
64061;SDS011;50308;47.438;-1.528;2023-12-07T01:55:41;2.13;;;1.92;;
64061;SDS011;50308;47.438;-1.528;2023-12-07T01:58:07;2.55;;;1.95;;
64061;SDS011;50308;47.438;-1.528;2023-12-07T02:00:33;3.05;;;2.03;;
64061;SDS011;50308;47.438;-1.528;2023-12-07T02:03:00;3.28;;;2.08;;
64061;SDS011;50308;47.438;-1.528;2023-12-07T02:05:29;2.75;;;2.03;;
64061;SDS011;50308;47.438;-1.528;2023-12-07T02:07:56;2.55;;;1.90;;
64061;SDS011;50308;47.438;-1.528;2023-12-07T02:10:21;3.90;;;2.13;;
64061;SDS011;50308;47.438;-1.528;2023-12-07T02:12:47;2.63;;;2.10;;
64061;SDS011;50308;47.438;-1.528;2023-12-07T02:15:13;2.55;;;1.90;;
64061;SDS011;50308;47.438;-1.528;2023-12-07T02:22:47;3.53;;;2.05;;
64061;SDS011;50308;47.438;-1.528;2023-12-07T02:25:17;2.05;;;1.75;;
64061;SDS011;50308;47.438;-1.528;2023-12-07T02:27:47;2.22;;;1.73;;
64061;SDS011;50308;47.438;-1.528;2023-12-07T02:30:13;2.22;;;1.88;;
64061;SDS011;50308;47.438;-1.528;2023-12-07T02:32:40;3.45;;;1.98;;
64061;SDS011;50308;47.438;-1.528;2023-12-07T02:35:08;3.63;;;2.10;;
64061;SDS011;50308;47.438;-1.528;2023-12-07T02:37:40;2.95;;;1.80;;
64061;SDS011;50308;47.438;-1.528;2023-12-07T02:40:12;2.30;;;1.80;;
64061;SDS011;50308;47.438;-1.528;2023-12-07T02:42:40;2.58;;;1.80;;
64061;SDS011;50308;47.438;-1.528;2023-12-07T02:45:06;2.10;;;1.70;;
64061;SDS011;50308;47.438;-1.528;2023-12-07T02:47:33;2.50;;;1.70;;
64061;SDS011;50308;47.438;-1.528;2023-12-07T02:49:59;3.13;;;2.28;;
64061;SDS011;50308;47.438;-1.528;2023-12-07T02:52:25;2.47;;;1.90;;
64061;SDS011;50308;47.438;-1.528;2023-12-07T02:54:50;1.90;;;1.73;;
64061;SDS011;50308;47.438;-1.528;2023-12-07T02:57:16;2.60;;;1.70;;
64061;SDS011;50308;47.438;-1.528;2023-12-07T02:59:42;2.35;;;1.83;;
64061;SDS011;50308;47.438;-1.528;2023-12-07T03:02:07;3.25;;;1.70;;
64061;SDS011;50308;47.438;-1.528;2023-12-07T03:04:33;2.90;;;2.00;;
64061;SDS011;50308;47.438;-1.528;2023-12-07T03:06:59;1.83;;;1.60;;
64061;SDS011;50308;47.438;-1.528;2023-12-07T03:09:24;1.90;;;1.52;;
64061;SDS011;50308;47.438;-1.528;2023-12-07T03:11:50;2.38;;;1.85;;
64061;SDS011;50308;47.438;-1.528;2023-12-07T03:14:16;1.95;;;1.70;;
64061;SDS011;50308;47.438;-1.528;2023-12-07T03:16:41;2.13;;;1.50;;
64061;SDS011;50308;47.438;-1.528;2023-12-07T03:19:07;3.28;;;1.90;;
64061;SDS011;50308;47.438;-1.528;2023-12-07T03:21:33;3.28;;;1.60;;
64061;SDS011;50308;47.438;-1.528;2023-12-07T03:23:58;1.92;;;1.50;;
64061;SDS011;50308;47.438;-1.528;2023-12-07T03:26:24;2.63;;;1.80;;
64061;SDS011;50308;47.438;-1.528;2023-12-07T03:28:50;2.30;;;2.10;;
64061;SDS011;50308;47.438;-1.528;2023-12-07T03:31:16;2.40;;;1.70;;
64061;SDS011;50308;47.438;-1.528;2023-12-07T03:33:41;3.63;;;1.90;;
64061;SDS011;50308;47.438;-1.528;2023-12-07T03:36:10;2.10;;;1.63;;
64061;SDS011;50308;47.438;-1.528;2023-12-07T03:38:36;3.13;;;1.70;;
64061;SDS011;50308;47.438;-1.528;2023-12-07T03:41:02;1.95;;;1.80;;
64061;SDS011;50308;47.438;-1.528;2023-12-07T03:43:27;3.38;;;1.60;;
64061;SDS011;50308;47.438;-1.528;2023-12-07T03:45:53;2.67;;;1.80;;
64061;SDS011;50308;47.438;-1.528;2023-12-07T03:48:19;2.17;;;1.70;;
64061;SDS011;50308;47.438;-1.528;2023-12-07T03:50:44;2.45;;;1.80;;
64061;SDS011;50308;47.438;-1.528;2023-12-07T03:53:10;2.40;;;1.73;;
64061;SDS011;50308;47.438;-1.528;2023-12-07T03:55:36;2.85;;;1.70;;
64061;SDS011;50308;47.438;-1.528;2023-12-07T03:58:02;3.10;;;1.73;;
64061;SDS011;50308;47.438;-1.528;2023-12-07T04:00:27;2.65;;;1.85;;
64061;SDS011;50308;47.438;-1.528;2023-12-07T04:02:53;2.00;;;1.60;;
64061;SDS011;50308;47.438;-1.528;2023-12-07T04:05:19;2.53;;;1.83;;
64061;SDS011;50308;47.438;-1.528;2023-12-07T04:07:44;2.53;;;1.90;;
64061;SDS011;50308;47.438;-1.528;2023-12-07T04:10:10;2.08;;;1.75;;
64061;SDS011;50308;47.438;-1.528;2023-12-07T04:12:36;3.30;;;1.77;;
64061;SDS011;50308;47.438;-1.528;2023-12-07T04:15:02;2.25;;;1.65;;
64061;SDS011;50308;47.438;-1.528;2023-12-07T04:17:27;2.58;;;1.80;;
64061;SDS011;50308;47.438;-1.528;2023-12-07T04:19:53;2.17;;;1.80;;
64061;SDS011;50308;47.438;-1.528;2023-12-07T04:22:19;2.25;;;1.83;;
64061;SDS011;50308;47.438;-1.528;2023-12-07T04:24:44;2.35;;;1.75;;
64061;SDS011;50308;47.438;-1.528;2023-12-07T04:27:10;2.05;;;1.70;;
64061;SDS011;50308;47.438;-1.528;2023-12-07T04:29:36;2.60;;;1.50;;
64061;SDS011;50308;47.438;-1.528;2023-12-07T04:32:01;2.58;;;1.80;;
64061;SDS011;50308;47.438;-1.528;2023-12-07T04:34:27;2.20;;;1.70;;
64061;SDS011;50308;47.438;-1.528;2023-12-07T04:36:53;3.47;;;1.67;;
64061;SDS011;50308;47.438;-1.528;2023-12-07T04:39:18;2.17;;;1.80;;
64061;SDS011;50308;47.438;-1.528;2023-12-07T04:41:44;2.55;;;1.88;;
64061;SDS011;50308;47.438;-1.528;2023-12-07T04:44:09;2.33;;;1.90;;
64061;SDS011;50308;47.438;-1.528;2023-12-07T04:46:35;2.47;;;1.50;;
64061;SDS011;50308;47.438;-1.528;2023-12-07T04:49:01;1.98;;;1.63;;
64061;SDS011;50308;47.438;-1.528;2023-12-07T04:51:27;2.80;;;2.08;;
64061;SDS011;50308;47.438;-1.528;2023-12-07T04:53:52;3.35;;;1.85;;
64061;SDS011;50308;47.438;-1.528;2023-12-07T04:56:18;3.10;;;1.95;;
64061;SDS011;50308;47.438;-1.528;2023-12-07T04:58:44;2.10;;;1.80;;
64061;SDS011;50308;47.438;-1.528;2023-12-07T05:01:09;2.33;;;1.70;;
64061;SDS011;50308;47.438;-1.528;2023-12-07T05:03:35;2.13;;;1.83;;
64061;SDS011;50308;47.438;-1.528;2023-12-07T05:06:00;3.15;;;1.70;;
64061;SDS011;50308;47.438;-1.528;2023-12-07T05:08:26;2.15;;;1.80;;
64061;SDS011;50308;47.438;-1.528;2023-12-07T05:10:52;2.10;;;1.65;;
64061;SDS011;50308;47.438;-1.528;2023-12-07T05:13:18;2.47;;;1.90;;
64061;SDS011;50308;47.438;-1.528;2023-12-07T05:15:43;3.53;;;1.80;;
64061;SDS011;50308;47.438;-1.528;2023-12-07T05:18:11;2.63;;;1.70;;
64061;SDS011;50308;47.438;-1.528;2023-12-07T05:20:38;3.97;;;1.77;;
64061;SDS011;50308;47.438;-1.528;2023-12-07T05:23:04;3.42;;;1.60;;
64061;SDS011;50308;47.438;-1.528;2023-12-07T05:25:30;2.05;;;1.35;;
64061;SDS011;50308;47.438;-1.528;2023-12-07T05:27:57;1.73;;;1.40;;
64061;SDS011;50308;47.438;-1.528;2023-12-07T05:30:23;2.33;;;1.50;;
64061;SDS011;50308;47.438;-1.528;2023-12-07T05:32:49;2.08;;;1.88;;
64061;SDS011;50308;47.438;-1.528;2023-12-07T05:35:15;2.50;;;1.67;;
64061;SDS011;50308;47.438;-1.528;2023-12-07T05:37:41;2.10;;;1.50;;
64061;SDS011;50308;47.438;-1.528;2023-12-07T05:40:07;2.30;;;1.60;;
64061;SDS011;50308;47.438;-1.528;2023-12-07T05:42:34;2.33;;;1.65;;
64061;SDS011;50308;47.438;-1.528;2023-12-07T05:45:00;2.30;;;1.50;;
64061;SDS011;50308;47.438;-1.528;2023-12-07T05:47:26;1.77;;;1.30;;
64061;SDS011;50308;47.438;-1.528;2023-12-07T05:49:52;1.70;;;1.45;;
64061;SDS011;50308;47.438;-1.528;2023-12-07T05:52:17;2.13;;;1.65;;
64061;SDS011;50308;47.438;-1.528;2023-12-07T05:54:43;1.60;;;1.17;;
64061;SDS011;50308;47.438;-1.528;2023-12-07T05:57:11;2.63;;;1.40;;
64061;SDS011;50308;47.438;-1.528;2023-12-07T05:59:38;1.50;;;1.30;;
64061;SDS011;50308;47.438;-1.528;2023-12-07T06:02:04;1.90;;;1.20;;
64061;SDS011;50308;47.438;-1.528;2023-12-07T06:04:30;2.15;;;1.45;;
64061;SDS011;50308;47.438;-1.528;2023-12-07T06:06:56;1.98;;;1.50;;
64061;SDS011;50308;47.438;-1.528;2023-12-07T06:09:21;2.20;;;1.48;;
64061;SDS011;50308;47.438;-1.528;2023-12-07T06:11:47;2.33;;;1.67;;
64061;SDS011;50308;47.438;-1.528;2023-12-07T06:14:13;2.42;;;1.50;;
64061;SDS011;50308;47.438;-1.528;2023-12-07T06:16:38;2.67;;;1.60;;
64061;SDS011;50308;47.438;-1.528;2023-12-07T06:19:04;2.47;;;1.67;;
64061;SDS011;50308;47.438;-1.528;2023-12-07T06:21:30;2.60;;;1.60;;
64061;SDS011;50308;47.438;-1.528;2023-12-07T06:23:56;5.32;;;1.70;;
64061;SDS011;50308;47.438;-1.528;2023-12-07T06:26:24;1.70;;;1.30;;
64061;SDS011;50308;47.438;-1.528;2023-12-07T06:28:50;2.95;;;2.17;;
64061;SDS011;50308;47.438;-1.528;2023-12-07T06:31:16;2.60;;;1.58;;
64061;SDS011;50308;47.438;-1.528;2023-12-07T06:33:45;2.85;;;1.58;;
64061;SDS011;50308;47.438;-1.528;2023-12-07T06:36:10;3.95;;;1.80;;
64061;SDS011;50308;47.438;-1.528;2023-12-07T06:38:36;2.28;;;1.80;;
64061;SDS011;50308;47.438;-1.528;2023-12-07T06:41:03;2.03;;;1.65;;
64061;SDS011;50308;47.438;-1.528;2023-12-07T06:43:29;2.03;;;1.63;;
64061;SDS011;50308;47.438;-1.528;2023-12-07T06:45:54;2.13;;;1.80;;
64061;SDS011;50308;47.438;-1.528;2023-12-07T06:48:21;2.78;;;1.75;;
64061;SDS011;50308;47.438;-1.528;2023-12-07T06:50:47;1.85;;;1.30;;
64061;SDS011;50308;47.438;-1.528;2023-12-07T06:53:13;2.63;;;1.55;;
64061;SDS011;50308;47.438;-1.528;2023-12-07T06:55:40;2.67;;;1.58;;
64061;SDS011;50308;47.438;-1.528;2023-12-07T06:58:08;2.00;;;1.40;;
64061;SDS011;50308;47.438;-1.528;2023-12-07T07:00:34;1.98;;;1.55;;
64061;SDS011;50308;47.438;-1.528;2023-12-07T07:03:01;3.15;;;1.90;;
64061;SDS011;50308;47.438;-1.528;2023-12-07T07:05:27;1.92;;;1.30;;
64061;SDS011;50308;47.438;-1.528;2023-12-07T07:07:52;2.42;;;1.50;;
64061;SDS011;50308;47.438;-1.528;2023-12-07T07:10:20;3.10;;;1.90;;
64061;SDS011;50308;47.438;-1.528;2023-12-07T07:12:46;2.85;;;1.70;;
64061;SDS011;50308;47.438;-1.528;2023-12-07T07:15:11;2.38;;;2.08;;
64061;SDS011;50308;47.438;-1.528;2023-12-07T07:17:37;5.63;;;3.78;;
64061;SDS011;50308;47.438;-1.528;2023-12-07T07:20:03;6.18;;;4.53;;
64061;SDS011;50308;47.438;-1.528;2023-12-07T07:22:29;8.10;;;5.45;;
64061;SDS011;50308;47.438;-1.528;2023-12-07T07:24:55;6.72;;;4.60;;
64061;SDS011;50308;47.438;-1.528;2023-12-07T07:27:21;5.93;;;3.75;;
64061;SDS011;50308;47.438;-1.528;2023-12-07T07:29:46;3.20;;;2.50;;
64061;SDS011;50308;47.438;-1.528;2023-12-07T07:32:12;4.35;;;2.75;;
64061;SDS011;50308;47.438;-1.528;2023-12-07T07:34:38;2.80;;;1.83;;
64061;SDS011;50308;47.438;-1.528;2023-12-07T07:37:04;2.53;;;2.00;;
64061;SDS011;50308;47.438;-1.528;2023-12-07T07:39:32;2.45;;;1.70;;
64061;SDS011;50308;47.438;-1.528;2023-12-07T07:41:57;2.47;;;1.58;;
64061;SDS011;50308;47.438;-1.528;2023-12-07T07:44:23;2.17;;;1.50;;
64061;SDS011;50308;47.438;-1.528;2023-12-07T07:46:49;2.40;;;1.40;;
64061;SDS011;50308;47.438;-1.528;2023-12-07T07:49:14;2.22;;;1.60;;
64061;SDS011;50308;47.438;-1.528;2023-12-07T07:51:40;1.55;;;1.30;;
64061;SDS011;50308;47.438;-1.528;2023-12-07T07:54:06;2.60;;;1.60;;
64061;SDS011;50308;47.438;-1.528;2023-12-07T07:56:31;4.25;;;1.65;;
64061;SDS011;50308;47.438;-1.528;2023-12-07T07:58:57;1.55;;;1.40;;
64061;SDS011;50308;47.438;-1.528;2023-12-07T08:01:25;2.30;;;1.88;;
64061;SDS011;50308;47.438;-1.528;2023-12-07T08:03:51;1.60;;;1.50;;
64061;SDS011;50308;47.438;-1.528;2023-12-07T08:06:17;1.85;;;1.42;;
64061;SDS011;50308;47.438;-1.528;2023-12-07T08:08:42;2.30;;;1.60;;
64061;SDS011;50308;47.438;-1.528;2023-12-07T08:11:08;1.90;;;1.58;;
64061;SDS011;50308;47.438;-1.528;2023-12-07T08:13:34;2.03;;;1.70;;
64061;SDS011;50308;47.438;-1.528;2023-12-07T08:15:59;2.15;;;1.30;;
64061;SDS011;50308;47.438;-1.528;2023-12-07T08:18:25;1.92;;;1.40;;
64061;SDS011;50308;47.438;-1.528;2023-12-07T08:20:51;1.45;;;1.30;;
64061;SDS011;50308;47.438;-1.528;2023-12-07T08:23:17;1.90;;;1.50;;
64061;SDS011;50308;47.438;-1.528;2023-12-07T08:25:42;1.98;;;1.60;;
64061;SDS011;50308;47.438;-1.528;2023-12-07T08:28:08;2.78;;;1.65;;
64061;SDS011;50308;47.438;-1.528;2023-12-07T08:30:35;1.90;;;1.40;;
64061;SDS011;50308;47.438;-1.528;2023-12-07T08:33:01;2.58;;;1.48;;
64061;SDS011;50308;47.438;-1.528;2023-12-07T08:35:27;1.77;;;1.40;;
64061;SDS011;50308;47.438;-1.528;2023-12-07T08:37:52;1.83;;;1.38;;
64061;SDS011;50308;47.438;-1.528;2023-12-07T08:40:18;1.75;;;1.30;;
64061;SDS011;50308;47.438;-1.528;2023-12-07T08:42:45;2.08;;;1.40;;
64061;SDS011;50308;47.438;-1.528;2023-12-07T08:45:12;2.75;;;1.15;;
64061;SDS011;50308;47.438;-1.528;2023-12-07T08:47:41;2.38;;;1.25;;
64061;SDS011;50308;47.438;-1.528;2023-12-07T08:50:07;1.42;;;1.30;;
64061;SDS011;50308;47.438;-1.528;2023-12-07T08:52:33;1.70;;;1.60;;
64061;SDS011;50308;47.438;-1.528;2023-12-07T08:54:58;1.40;;;1.30;;
64061;SDS011;50308;47.438;-1.528;2023-12-07T08:57:24;1.80;;;1.35;;
64061;SDS011;50308;47.438;-1.528;2023-12-07T08:59:50;1.48;;;1.23;;
64061;SDS011;50308;47.438;-1.528;2023-12-07T09:02:16;1.75;;;1.58;;
64061;SDS011;50308;47.438;-1.528;2023-12-07T09:04:42;2.70;;;1.40;;
64061;SDS011;50308;47.438;-1.528;2023-12-07T09:07:07;2.65;;;1.80;;
64061;SDS011;50308;47.438;-1.528;2023-12-07T09:09:34;1.75;;;1.35;;
64061;SDS011;50308;47.438;-1.528;2023-12-07T09:12:00;1.92;;;1.40;;
64061;SDS011;50308;47.438;-1.528;2023-12-07T09:14:25;2.35;;;1.40;;
64061;SDS011;50308;47.438;-1.528;2023-12-07T09:16:54;2.17;;;1.40;;
64061;SDS011;50308;47.438;-1.528;2023-12-07T09:19:20;3.65;;;1.40;;
64061;SDS011;50308;47.438;-1.528;2023-12-07T09:21:45;1.73;;;1.25;;
64061;SDS011;50308;47.438;-1.528;2023-12-07T09:24:11;1.92;;;1.30;;
64061;SDS011;50308;47.438;-1.528;2023-12-07T09:26:37;1.40;;;1.15;;
64061;SDS011;50308;47.438;-1.528;2023-12-07T09:29:02;2.00;;;1.40;;
64061;SDS011;50308;47.438;-1.528;2023-12-07T09:31:28;1.80;;;1.33;;
64061;SDS011;50308;47.438;-1.528;2023-12-07T09:33:54;1.58;;;1.30;;
64061;SDS011;50308;47.438;-1.528;2023-12-07T09:36:19;1.50;;;1.40;;
64061;SDS011;50308;47.438;-1.528;2023-12-07T09:38:49;2.20;;;1.42;;
64061;SDS011;50308;47.438;-1.528;2023-12-07T09:41:14;1.42;;;1.30;;
64061;SDS011;50308;47.438;-1.528;2023-12-07T09:43:41;1.95;;;1.30;;
64061;SDS011;50308;47.438;-1.528;2023-12-07T09:46:07;3.10;;;1.50;;
64061;SDS011;50308;47.438;-1.528;2023-12-07T09:48:33;1.70;;;1.30;;
64061;SDS011;50308;47.438;-1.528;2023-12-07T09:51:01;1.50;;;1.20;;
64061;SDS011;50308;47.438;-1.528;2023-12-07T09:53:29;2.03;;;1.52;;
64061;SDS011;50308;47.438;-1.528;2023-12-07T09:55:58;1.77;;;1.20;;
64061;SDS011;50308;47.438;-1.528;2023-12-07T09:58:24;1.50;;;1.30;;
64061;SDS011;50308;47.438;-1.528;2023-12-07T10:00:50;1.60;;;1.35;;
64061;SDS011;50308;47.438;-1.528;2023-12-07T10:03:22;1.70;;;1.20;;
64061;SDS011;50308;47.438;-1.528;2023-12-07T10:05:55;1.52;;;1.42;;
64061;SDS011;50308;47.438;-1.528;2023-12-07T10:08:40;1.60;;;1.35;;
64061;SDS011;50308;47.438;-1.528;2023-12-07T10:11:06;1.98;;;1.30;;
64061;SDS011;50308;47.438;-1.528;2023-12-07T10:13:33;2.30;;;1.40;;
64061;SDS011;50308;47.438;-1.528;2023-12-07T10:16:10;1.60;;;1.35;;
64061;SDS011;50308;47.438;-1.528;2023-12-07T10:18:41;2.00;;;1.50;;
64061;SDS011;50308;47.438;-1.528;2023-12-07T10:21:07;1.58;;;1.33;;
64061;SDS011;50308;47.438;-1.528;2023-12-07T10:23:36;2.97;;;1.58;;
64061;SDS011;50308;47.438;-1.528;2023-12-07T10:26:04;1.67;;;1.20;;
64061;SDS011;50308;47.438;-1.528;2023-12-07T10:28:31;3.10;;;1.70;;
64061;SDS011;50308;47.438;-1.528;2023-12-07T10:31:00;2.03;;;1.55;;
64061;SDS011;50308;47.438;-1.528;2023-12-07T10:33:26;1.90;;;1.30;;
64061;SDS011;50308;47.438;-1.528;2023-12-07T10:35:52;1.95;;;1.40;;
64061;SDS011;50308;47.438;-1.528;2023-12-07T10:38:17;2.25;;;1.30;;
64061;SDS011;50308;47.438;-1.528;2023-12-07T10:40:45;1.65;;;1.42;;
64061;SDS011;50308;47.438;-1.528;2023-12-07T10:43:12;1.70;;;1.52;;
64061;SDS011;50308;47.438;-1.528;2023-12-07T10:45:37;1.58;;;1.35;;
64061;SDS011;50308;47.438;-1.528;2023-12-07T10:48:08;1.92;;;1.58;;
64061;SDS011;50308;47.438;-1.528;2023-12-07T10:50:35;2.03;;;1.50;;
64061;SDS011;50308;47.438;-1.528;2023-12-07T10:53:10;2.10;;;1.48;;
64061;SDS011;50308;47.438;-1.528;2023-12-07T10:55:56;2.03;;;1.20;;
64061;SDS011;50308;47.438;-1.528;2023-12-07T10:58:28;1.77;;;1.65;;
64061;SDS011;50308;47.438;-1.528;2023-12-07T11:00:54;1.90;;;1.35;;
64061;SDS011;50308;47.438;-1.528;2023-12-07T11:03:19;2.58;;;1.63;;
64061;SDS011;50308;47.438;-1.528;2023-12-07T11:05:46;1.63;;;1.48;;
64061;SDS011;50308;47.438;-1.528;2023-12-07T11:14:00;1.35;;;1.20;;
64061;SDS011;50308;47.438;-1.528;2023-12-07T11:16:31;1.52;;;1.27;;
64061;SDS011;50308;47.438;-1.528;2023-12-07T11:19:00;1.33;;;1.13;;
64061;SDS011;50308;47.438;-1.528;2023-12-07T11:21:26;1.63;;;1.48;;
64061;SDS011;50308;47.438;-1.528;2023-12-07T11:23:52;1.60;;;1.30;;
64061;SDS011;50308;47.438;-1.528;2023-12-07T11:26:22;1.63;;;1.25;;
64061;SDS011;50308;47.438;-1.528;2023-12-07T11:28:49;1.90;;;1.50;;
64061;SDS011;50308;47.438;-1.528;2023-12-07T11:31:15;1.38;;;1.20;;
64061;SDS011;50308;47.438;-1.528;2023-12-07T11:33:42;2.00;;;1.20;;
64061;SDS011;50308;47.438;-1.528;2023-12-07T11:36:08;1.50;;;1.27;;
64061;SDS011;50308;47.438;-1.528;2023-12-07T11:38:38;1.50;;;1.30;;
64061;SDS011;50308;47.438;-1.528;2023-12-07T11:41:23;1.73;;;1.30;;
64061;SDS011;50308;47.438;-1.528;2023-12-07T11:43:49;2.05;;;1.52;;
64061;SDS011;50308;47.438;-1.528;2023-12-07T11:46:18;1.98;;;1.23;;
64061;SDS011;50308;47.438;-1.528;2023-12-07T11:48:48;1.95;;;1.40;;
64061;SDS011;50308;47.438;-1.528;2023-12-07T11:51:15;1.63;;;1.40;;
64061;SDS011;50308;47.438;-1.528;2023-12-07T11:53:41;1.55;;;1.10;;
64061;SDS011;50308;47.438;-1.528;2023-12-07T11:56:10;1.70;;;1.23;;
64061;SDS011;50308;47.438;-1.528;2023-12-07T11:58:37;1.40;;;1.15;;
64061;SDS011;50308;47.438;-1.528;2023-12-07T12:01:03;1.42;;;1.30;;
64061;SDS011;50308;47.438;-1.528;2023-12-07T12:03:29;1.77;;;1.25;;
64061;SDS011;50308;47.438;-1.528;2023-12-07T12:05:57;1.25;;;1.15;;
64061;SDS011;50308;47.438;-1.528;2023-12-07T12:08:23;1.70;;;1.10;;
64061;SDS011;50308;47.438;-1.528;2023-12-07T12:10:49;1.63;;;1.20;;
64061;SDS011;50308;47.438;-1.528;2023-12-07T12:13:25;1.30;;;1.20;;
64061;SDS011;50308;47.438;-1.528;2023-12-07T12:15:55;1.55;;;1.00;;
64061;SDS011;50308;47.438;-1.528;2023-12-07T12:18:22;1.10;;;1.00;;
64061;SDS011;50308;47.438;-1.528;2023-12-07T12:20:49;2.30;;;1.25;;
64061;SDS011;50308;47.438;-1.528;2023-12-07T12:23:16;1.30;;;1.20;;
64061;SDS011;50308;47.438;-1.528;2023-12-07T12:25:41;1.95;;;1.30;;
64061;SDS011;50308;47.438;-1.528;2023-12-07T12:28:08;1.60;;;1.30;;
64061;SDS011;50308;47.438;-1.528;2023-12-07T12:30:34;1.67;;;1.20;;
64061;SDS011;50308;47.438;-1.528;2023-12-07T12:33:02;1.55;;;1.20;;
64061;SDS011;50308;47.438;-1.528;2023-12-07T12:35:28;1.50;;;1.40;;
64061;SDS011;50308;47.438;-1.528;2023-12-07T12:37:54;1.40;;;1.30;;
64061;SDS011;50308;47.438;-1.528;2023-12-07T12:40:21;1.83;;;1.10;;
64061;SDS011;50308;47.438;-1.528;2023-12-07T12:42:48;1.40;;;1.20;;
64061;SDS011;50308;47.438;-1.528;2023-12-07T12:45:15;1.90;;;1.38;;
64061;SDS011;50308;47.438;-1.528;2023-12-07T12:47:43;2.05;;;1.50;;
64061;SDS011;50308;47.438;-1.528;2023-12-07T12:50:10;1.42;;;1.23;;
64061;SDS011;50308;47.438;-1.528;2023-12-07T12:52:40;1.20;;;1.10;;
64061;SDS011;50308;47.438;-1.528;2023-12-07T12:55:07;2.30;;;1.20;;
64061;SDS011;50308;47.438;-1.528;2023-12-07T12:57:36;1.80;;;1.40;;
64061;SDS011;50308;47.438;-1.528;2023-12-07T13:00:03;1.70;;;1.40;;
64061;SDS011;50308;47.438;-1.528;2023-12-07T13:02:29;1.92;;;1.38;;
64061;SDS011;50308;47.438;-1.528;2023-12-07T13:04:55;1.50;;;1.30;;
64061;SDS011;50308;47.438;-1.528;2023-12-07T13:07:23;1.77;;;1.20;;
64061;SDS011;50308;47.438;-1.528;2023-12-07T13:09:49;2.35;;;1.33;;
64061;SDS011;50308;47.438;-1.528;2023-12-07T13:12:15;1.75;;;1.20;;
64061;SDS011;50308;47.438;-1.528;2023-12-07T13:14:41;1.25;;;1.10;;
64061;SDS011;50308;47.438;-1.528;2023-12-07T13:17:07;1.90;;;1.40;;
64061;SDS011;50308;47.438;-1.528;2023-12-07T13:19:33;1.80;;;1.30;;
64061;SDS011;50308;47.438;-1.528;2023-12-07T13:21:59;1.73;;;1.40;;
64061;SDS011;50308;47.438;-1.528;2023-12-07T13:24:25;1.77;;;1.45;;
64061;SDS011;50308;47.438;-1.528;2023-12-07T13:26:51;2.45;;;1.50;;
64061;SDS011;50308;47.438;-1.528;2023-12-07T13:29:16;2.33;;;1.60;;
64061;SDS011;50308;47.438;-1.528;2023-12-07T13:31:42;1.60;;;1.50;;
64061;SDS011;50308;47.438;-1.528;2023-12-07T13:34:09;1.80;;;1.55;;
64061;SDS011;50308;47.438;-1.528;2023-12-07T13:36:36;1.98;;;1.70;;
64061;SDS011;50308;47.438;-1.528;2023-12-07T13:39:02;2.15;;;1.95;;
64061;SDS011;50308;47.438;-1.528;2023-12-07T13:41:28;1.95;;;1.60;;
64061;SDS011;50308;47.438;-1.528;2023-12-07T13:43:53;2.10;;;1.90;;
64061;SDS011;50308;47.438;-1.528;2023-12-07T13:46:19;2.40;;;1.77;;
64061;SDS011;50308;47.438;-1.528;2023-12-07T13:48:45;1.70;;;1.50;;
64061;SDS011;50308;47.438;-1.528;2023-12-07T13:51:11;1.90;;;1.60;;
64061;SDS011;50308;47.438;-1.528;2023-12-07T13:53:37;1.80;;;1.70;;
64061;SDS011;50308;47.438;-1.528;2023-12-07T13:56:03;2.55;;;1.70;;
64061;SDS011;50308;47.438;-1.528;2023-12-07T13:58:32;1.67;;;1.58;;
64061;SDS011;50308;47.438;-1.528;2023-12-07T14:00:59;1.55;;;1.35;;
64061;SDS011;50308;47.438;-1.528;2023-12-07T14:03:26;1.90;;;1.70;;
64061;SDS011;50308;47.438;-1.528;2023-12-07T14:05:52;1.95;;;1.60;;
64061;SDS011;50308;47.438;-1.528;2023-12-07T14:08:18;1.60;;;1.27;;
64061;SDS011;50308;47.438;-1.528;2023-12-07T14:10:44;1.58;;;1.48;;
64061;SDS011;50308;47.438;-1.528;2023-12-07T14:13:10;1.75;;;1.38;;
64061;SDS011;50308;47.438;-1.528;2023-12-07T14:15:35;1.60;;;1.50;;
64061;SDS011;50308;47.438;-1.528;2023-12-07T14:18:01;1.60;;;1.45;;
64061;SDS011;50308;47.438;-1.528;2023-12-07T14:20:28;3.15;;;1.60;;
64061;SDS011;50308;47.438;-1.528;2023-12-07T14:22:56;1.73;;;1.55;;
64061;SDS011;50308;47.438;-1.528;2023-12-07T14:25:23;2.45;;;1.52;;
64061;SDS011;50308;47.438;-1.528;2023-12-07T14:27:49;1.80;;;1.60;;
64061;SDS011;50308;47.438;-1.528;2023-12-07T14:30:14;1.80;;;1.50;;
64061;SDS011;50308;47.438;-1.528;2023-12-07T14:32:42;1.80;;;1.55;;
64061;SDS011;50308;47.438;-1.528;2023-12-07T14:35:13;2.03;;;1.55;;
64061;SDS011;50308;47.438;-1.528;2023-12-07T14:37:38;1.55;;;1.45;;
64061;SDS011;50308;47.438;-1.528;2023-12-07T14:40:06;3.22;;;1.80;;